Time;durP1;ratioP1;P1;durP2;ratioP2;P2;SDS_P1;SDS_P2;PMS_P1;PMS_P2;Temp;Humidity;BMP_temperature;BMP_pressure;BME280_temperature;BME280_humidity;BME280_pressure;Samples;Min_cycle;Max_cycle;Signal;HPM_P1;HPM_P2
2022/09/15 08:12:29;;;;;;;8.07;4.95;;;18.90;99.90;;;;;;6240099;22;20208;-66
2022/09/15 08:14:57;;;;;;;10.75;5.90;;;18.90;99.90;;;;;;6243048;23;20267;-66
2022/09/15 08:17:24;;;;;;;8.63;5.20;;;19.20;99.90;;;;;;6245815;23;20188;-69
2022/09/15 08:19:51;;;;;;;9.82;5.35;;;19.20;99.90;;;;;;6245768;23;20278;-66
2022/09/15 08:22:18;;;;;;;8.68;5.38;;;19.60;99.90;;;;;;6243705;23;20208;-66
2022/09/15 08:24:44;;;;;;;7.90;4.90;;;19.90;99.90;;;;;;6240167;23;20179;-66
2022/09/15 08:27:11;;;;;;;9.45;5.20;;;20.10;99.90;;;;;;6243852;23;20206;-67
2022/09/15 08:29:38;;;;;;;8.57;5.07;;;20.40;99.90;;;;;;6244388;23;20202;-68
2022/09/15 08:32:06;;;;;;;8.43;5.35;;;20.70;99.90;;;;;;6243335;23;20655;-69
2022/09/15 08:34:33;;;;;;;7.88;5.03;;;21.10;99.90;;;;;;6243998;23;20654;-70
2022/09/15 08:37:00;;;;;;;7.18;4.90;;;21.00;99.90;;;;;;6243557;23;20203;-68
2022/09/15 08:39:27;;;;;;;7.95;4.68;;;20.90;99.90;;;;;;6241969;23;20528;-65
2022/09/15 08:41:55;;;;;;;8.30;5.20;;;20.60;99.90;;;;;;6244495;23;20207;-67
2022/09/15 08:44:35;;;;;;;8.70;5.00;;;20.70;99.90;;;;;;6244158;23;20180;-68
2022/09/15 08:47:09;;;;;;;8.50;4.95;;;20.90;99.90;;;;;;6243299;23;20179;-68
2022/09/15 08:49:43;;;;;;;7.22;4.43;;;21.20;99.90;;;;;;6244116;23;20196;-70
2022/09/15 08:52:15;;;;;;;7.00;4.68;;;21.10;99.90;;;;;;6244164;23;20175;-70
2022/09/15 08:54:42;;;;;;;7.97;4.70;;;20.80;99.90;;;;;;6242642;23;20665;-69
2022/09/15 08:57:14;;;;;;;7.22;4.03;;;20.90;99.90;;;;;;6244216;23;20201;-68
2022/09/15 08:59:41;;;;;;;8.35;4.00;;;20.70;99.90;;;;;;6244288;23;20196;-69
2022/09/15 09:02:36;;;;;;;7.18;4.00;;;20.60;99.90;;;;;;6244196;23;20204;-69
2022/09/15 09:05:28;;;;;;;9.77;4.18;;;20.50;99.90;;;;;;6238643;23;20186;-68
2022/09/15 09:08:12;;;;;;;11.05;4.70;;;20.50;99.90;;;;;;6244245;23;20203;-67
2022/09/15 09:10:46;;;;;;;6.30;3.85;;;20.50;99.90;;;;;;6243181;23;20210;-72
2022/09/15 09:13:23;;;;;;;7.30;4.35;;;20.60;99.90;;;;;;6244008;23;20190;-68
2022/09/15 09:16:04;;;;;;;10.50;3.55;;;20.50;99.90;;;;;;6244170;23;20182;-69
2022/09/15 09:18:51;;;;;;;8.32;4.10;;;20.40;99.90;;;;;;6243110;23;20183;-69
2022/09/15 09:21:23;;;;;;;5.13;3.35;;;20.30;99.90;;;;;;6243624;23;20207;-68
2022/09/15 09:23:55;;;;;;;5.20;3.05;;;20.20;99.90;;;;;;6243413;23;20180;-68
2022/09/15 09:26:22;;;;;;;5.78;3.38;;;20.20;99.90;;;;;;6244151;23;20180;-68
2022/09/15 09:28:55;;;;;;;5.35;3.33;;;20.00;99.90;;;;;;6243717;23;20202;-71
2022/09/15 09:31:24;;;;;;;7.20;3.58;;;19.90;99.90;;;;;;6244800;23;20179;-69
2022/09/15 09:33:59;;;;;;;4.97;3.40;;;20.10;99.90;;;;;;6245582;23;20179;-71
2022/09/15 09:36:26;;;;;;;6.93;3.20;;;20.10;99.90;;;;;;6245208;23;20179;-72
2022/09/15 09:38:55;;;;;;;7.05;3.30;;;20.10;99.90;;;;;;6245401;23;20195;-67
2022/09/15 09:41:34;;;;;;;5.03;3.22;;;20.30;99.90;;;;;;6245553;23;20204;-67
2022/09/15 09:44:02;;;;;;;8.85;3.33;;;20.50;99.90;;;;;;6245377;23;20199;-67
2022/09/15 09:46:29;;;;;;;6.53;3.15;;;20.70;99.90;;;;;;6245206;23;20176;-68
2022/09/15 09:49:03;;;;;;;5.55;3.72;;;20.80;99.90;;;;;;6245080;23;20251;-69
2022/09/15 09:51:36;;;;;;;5.18;3.08;;;20.80;99.90;;;;;;6245175;23;20258;-69
2022/09/15 09:54:16;;;;;;;6.05;3.53;;;21.00;99.90;;;;;;6245395;23;20182;-69
2022/09/15 09:56:44;;;;;;;6.15;3.35;;;21.00;99.90;;;;;;6245170;23;20210;-67
2022/09/15 09:59:40;;;;;;;6.93;3.63;;;21.40;99.90;;;;;;6245169;23;20195;-67
2022/09/15 10:02:15;;;;;;;5.18;3.20;;;21.40;99.90;;;;;;6244353;23;20651;-67
2022/09/15 10:04:45;;;;;;;8.07;3.67;;;21.50;99.90;;;;;;6243792;23;20551;-67
2022/09/15 10:07:12;;;;;;;7.50;4.63;;;21.40;99.90;;;;;;6242500;23;20511;-67
2022/09/15 10:09:40;;;;;;;8.55;3.67;;;21.10;99.90;;;;;;6243387;23;20202;-67
2022/09/15 10:12:16;;;;;;;6.80;3.55;;;20.80;99.90;;;;;;6243687;23;20262;-68
2022/09/15 10:14:50;;;;;;;4.32;2.70;;;20.70;99.90;;;;;;6244715;23;20209;-69
2022/09/15 10:17:20;;;;;;;5.38;2.67;;;20.80;99.90;;;;;;6243620;23;20508;-67
2022/09/15 10:19:51;;;;;;;4.57;2.50;;;20.80;99.90;;;;;;6245033;23;20201;-67
2022/09/15 10:22:28;;;;;;;3.88;1.60;;;20.70;99.90;;;;;;6244705;23;20635;-67
2022/09/15 10:24:55;;;;;;;5.15;2.10;;;20.80;99.90;;;;;;6245629;23;20179;-67
2022/09/15 10:27:28;;;;;;;3.90;1.73;;;20.90;99.90;;;;;;6244457;23;20280;-67
2022/09/15 10:29:58;;;;;;;5.32;2.03;;;21.10;99.90;;;;;;6244187;23;20206;-67
2022/09/15 10:32:27;;;;;;;1.02;0.88;;;21.40;99.90;;;;;;6245050;23;20198;-67
2022/09/15 10:35:06;;;;;;;2.58;1.20;;;21.50;99.90;;;;;;6244292;23;20198;-68
2022/09/15 10:37:37;;;;;;;3.45;0.90;;;21.80;99.90;;;;;;6245397;23;20179;-67
2022/09/15 10:40:32;;;;;;;2.85;1.33;;;22.10;99.90;;;;;;6242989;23;20205;-67
2022/09/15 10:43:11;;;;;;;2.25;1.10;;;22.30;99.90;;;;;;6235209;23;20210;-67
2022/09/15 10:45:39;;;;;;;1.70;1.00;;;22.50;99.90;;;;;;6244714;23;20175;-67
2022/09/15 10:48:26;;;;;;;5.28;1.38;;;22.40;99.90;;;;;;6246826;23;20616;-68
2022/09/15 10:50:59;;;;;;;3.40;1.10;;;22.10;99.90;;;;;;6246127;23;20634;-70
2022/09/15 10:53:42;;;;;;;3.42;0.90;;;22.00;99.90;;;;;;6246709;23;20186;-67
2022/09/15 10:56:22;;;;;;;2.08;0.93;;;21.90;99.90;;;;;;6246653;23;20184;-67
2022/09/15 10:59:01;;;;;;;3.25;1.20;;;21.70;99.90;;;;;;6245478;23;20195;-69
2022/09/15 11:01:40;;;;;;;2.42;1.23;;;21.80;99.90;;;;;;6246494;23;20199;-67
2022/09/15 11:04:30;;;;;;;1.65;1.00;;;22.00;99.90;;;;;;6246642;23;20207;-68
2022/09/15 11:07:05;;;;;;;2.63;1.05;;;22.30;99.90;;;;;;6246225;23;20258;-67
2022/09/15 11:09:35;;;;;;;1.35;0.82;;;22.20;99.90;;;;;;6246835;23;20195;-68
2022/09/15 11:12:13;;;;;;;2.60;1.23;;;22.00;99.90;;;;;;6246701;23;20184;-68
2022/09/15 11:14:51;;;;;;;3.13;1.00;;;22.00;99.90;;;;;;6246370;23;20181;-71
2022/09/15 11:17:39;;;;;;;2.58;0.90;;;22.20;99.90;;;;;;6246098;23;20179;-71
2022/09/15 11:20:31;;;;;;;2.75;0.75;;;22.20;99.90;;;;;;6245517;23;20517;-69
2022/09/15 11:23:11;;;;;;;4.07;0.82;;;22.20;99.90;;;;;;6245805;23;20207;-69
2022/09/15 11:25:42;;;;;;;2.65;1.20;;;22.00;99.90;;;;;;6245933;23;20175;-67
2022/09/15 11:28:18;;;;;;;1.77;1.00;;;21.80;99.90;;;;;;6245191;23;20646;-68
2022/09/15 11:30:53;;;;;;;3.70;1.50;;;21.70;99.90;;;;;;6246082;23;20195;-68
2022/09/15 11:33:25;;;;;;;1.05;0.90;;;21.60;99.90;;;;;;6246278;23;20185;-68
2022/09/15 11:35:57;;;;;;;2.05;0.80;;;21.50;99.90;;;;;;6246119;23;20258;-68
2022/09/15 11:38:34;;;;;;;2.80;1.13;;;21.30;99.90;;;;;;6245824;23;20551;-67
2022/09/15 11:41:11;;;;;;;2.97;1.23;;;21.30;99.90;;;;;;6246815;23;20198;-68
2022/09/15 11:43:45;;;;;;;1.15;0.70;;;21.10;99.90;;;;;;6247225;23;20179;-68
2022/09/15 11:46:17;;;;;;;3.90;1.20;;;21.00;99.90;;;;;;6247047;23;20184;-68
2022/09/15 11:48:51;;;;;;;2.53;1.17;;;20.80;99.90;;;;;;6247030;23;20476;-68
2022/09/15 11:51:23;;;;;;;3.10;0.80;;;20.80;99.90;;;;;;6247567;23;20175;-67
2022/09/15 11:53:58;;;;;;;0.73;0.52;;;20.80;99.90;;;;;;6247405;23;20182;-67
2022/09/15 11:56:29;;;;;;;2.65;0.60;;;20.50;99.90;;;;;;6247465;23;20175;-69
2022/09/15 11:59:04;;;;;;;1.23;0.50;;;20.10;99.90;;;;;;6246099;23;20206;-68
2022/09/15 12:01:37;;;;;;;0.80;0.40;;;19.90;99.90;;;;;;6247305;23;20179;-69
2022/09/15 12:04:10;;;;;;;1.88;0.50;;;19.50;99.90;;;;;;6247324;23;20262;-68
2022/09/15 12:06:42;;;;;;;1.20;0.50;;;19.30;99.90;;;;;;6247370;23;20176;-71
2022/09/15 12:09:14;;;;;;;0.57;0.40;;;19.20;99.90;;;;;;6245262;23;20196;-71
2022/09/15 12:11:43;;;;;;;2.40;0.43;;;19.20;99.90;;;;;;6243866;23;20185;-67
2022/09/15 12:14:16;;;;;;;1.20;0.30;;;19.40;99.90;;;;;;6243357;23;20500;-68
2022/09/15 12:16:44;;;;;;;2.72;1.48;;;19.40;99.90;;;;;;6244703;23;20184;-68
2022/09/15 12:19:18;;;;;;;1.67;0.68;;;19.50;99.90;;;;;;6244497;23;20258;-67
2022/09/15 12:21:50;;;;;;;1.77;0.52;;;19.50;99.90;;;;;;6245980;23;20209;-67
2022/09/15 12:24:28;;;;;;;2.50;0.60;;;19.50;99.90;;;;;;6246145;23;20567;-68
2022/09/15 12:26:55;;;;;;;1.02;0.50;;;19.50;99.90;;;;;;6246304;23;20182;-67
2022/09/15 12:29:38;;;;;;;3.92;0.70;;;19.70;99.90;;;;;;6245428;23;20200;-68
2022/09/15 12:32:24;;;;;;;1.38;0.40;;;19.80;99.90;;;;;;6245619;23;20539;-67
2022/09/15 12:35:26;;;;;;;4.50;0.60;;;19.80;99.90;;;;;;6245723;23;20183;-67
2022/09/15 12:37:54;;;;;;;0.82;0.40;;;19.70;99.90;;;;;;6245476;23;20499;-70
2022/09/15 12:40:33;;;;;;;1.98;0.60;;;19.50;99.90;;;;;;6245973;23;20202;-68
2022/09/15 12:43:02;;;;;;;2.15;0.50;;;19.30;99.90;;;;;;6243714;23;20207;-68
2022/09/15 12:45:31;;;;;;;3.85;0.65;;;19.40;99.90;;;;;;6245430;23;20179;-67
2022/09/15 12:48:02;;;;;;;1.73;0.77;;;19.40;99.90;;;;;;6246095;23;20544;-68
2022/09/15 12:50:31;;;;;;;1.13;0.40;;;19.40;99.90;;;;;;6245441;23;20257;-68
2022/09/15 12:53:00;;;;;;;1.10;0.50;;;19.50;99.90;;;;;;6246190;23;20260;-68
2022/09/15 12:55:32;;;;;;;1.08;0.43;;;19.60;99.90;;;;;;6245631;23;20179;-67
2022/09/15 12:58:01;;;;;;;0.98;0.30;;;19.60;99.90;;;;;;6246338;23;20175;-67
2022/09/15 13:00:39;;;;;;;1.58;0.50;;;19.50;99.90;;;;;;6246329;23;20526;-68
2022/09/15 13:03:25;;;;;;;0.50;0.40;;;19.60;99.90;;;;;;6246161;23;20676;-70
2022/09/15 13:06:15;;;;;;;1.10;0.40;;;19.80;99.90;;;;;;6246597;23;20266;-69
2022/09/15 13:08:46;;;;;;;2.40;0.60;;;19.80;99.90;;;;;;6246526;23;20212;-67
2022/09/15 13:11:17;;;;;;;0.80;0.35;;;19.70;99.90;;;;;;6246733;23;20179;-67
2022/09/15 13:13:49;;;;;;;2.38;0.45;;;19.60;99.90;;;;;;6246105;23;20194;-67
2022/09/15 13:16:21;;;;;;;0.73;0.30;;;19.50;99.90;;;;;;6246537;23;20175;-68
2022/09/15 13:18:55;;;;;;;1.13;0.40;;;19.60;99.90;;;;;;6246577;23;20199;-68
2022/09/15 13:21:23;;;;;;;0.65;0.30;;;19.70;99.90;;;;;;6246452;23;20175;-69
2022/09/15 13:23:52;;;;;;;0.98;0.50;;;19.90;99.90;;;;;;6246352;23;20207;-69
2022/09/15 13:26:24;;;;;;;2.67;0.40;;;20.10;99.90;;;;;;6246512;23;20176;-68
2022/09/15 13:28:53;;;;;;;1.30;0.60;;;20.30;99.90;;;;;;6246209;23;20202;-68
2022/09/15 13:31:33;;;;;;;1.70;0.38;;;20.30;99.90;;;;;;6246401;23;20241;-67
2022/09/15 13:34:36;;;;;;;1.52;0.30;;;20.20;99.90;;;;;;6246072;23;20565;-71
2022/09/15 13:37:20;;;;;;;1.00;0.30;;;20.40;99.90;;;;;;6246190;23;20175;-67
2022/09/15 13:40:04;;;;;;;0.65;0.20;;;20.40;99.90;;;;;;6246235;23;20200;-67
2022/09/15 13:42:47;;;;;;;3.67;0.60;;;20.50;99.90;;;;;;6246343;23;20204;-68
2022/09/15 13:45:38;;;;;;;0.85;0.43;;;20.80;99.90;;;;;;6245983;23;20175;-67
2022/09/15 13:48:29;;;;;;;2.80;0.40;;;20.80;99.90;;;;;;6241311;23;20180;-68
2022/09/15 13:50:58;;;;;;;1.60;0.32;;;20.70;99.90;;;;;;6246236;23;20230;-68
2022/09/15 13:53:41;;;;;;;1.63;0.80;;;20.80;99.90;;;;;;6246318;23;20217;-67
2022/09/15 13:56:13;;;;;;;1.92;0.35;;;20.80;99.90;;;;;;6246424;23;20191;-68
2022/09/15 13:58:44;;;;;;;0.90;0.30;;;20.80;99.90;;;;;;6246177;23;20175;-68
2022/09/15 14:01:11;;;;;;;0.60;0.40;;;20.80;99.90;;;;;;6246377;23;20263;-69
2022/09/15 14:03:43;;;;;;;2.75;0.50;;;20.80;99.90;;;;;;6246053;23;20207;-68
2022/09/15 14:06:13;;;;;;;1.45;0.40;;;20.90;99.90;;;;;;6246206;23;20206;-67
2022/09/15 14:08:42;;;;;;;0.80;0.30;;;20.70;99.90;;;;;;6247099;23;20176;-68
2022/09/15 14:11:11;;;;;;;0.50;0.30;;;20.90;99.90;;;;;;6246223;23;20176;-69
2022/09/15 14:13:45;;;;;;;1.08;0.40;;;21.00;99.90;;;;;;6245683;23;20494;-70
2022/09/15 14:16:32;;;;;;;1.25;0.30;;;20.90;99.90;;;;;;6246183;23;20175;-67
2022/09/15 14:19:00;;;;;;;2.47;0.50;;;20.80;99.90;;;;;;6246210;23;20199;-67
2022/09/15 14:21:29;;;;;;;2.15;0.40;;;21.00;99.90;;;;;;6246013;23;20176;-67
2022/09/15 14:23:59;;;;;;;1.75;0.40;;;21.20;99.90;;;;;;6246035;23;20207;-67
2022/09/15 14:26:29;;;;;;;1.15;0.50;;;21.30;99.90;;;;;;6246235;23;20190;-68
2022/09/15 14:28:59;;;;;;;0.65;0.35;;;21.50;99.90;;;;;;6245551;23;20203;-68
2022/09/15 14:31:28;;;;;;;1.27;0.35;;;21.70;99.90;;;;;;6245977;23;20182;-68
2022/09/15 14:33:56;;;;;;;1.23;0.40;;;21.60;99.90;;;;;;6246162;23;20519;-68
2022/09/15 14:36:25;;;;;;;0.50;0.30;;;21.40;99.90;;;;;;6246222;23;20198;-68
2022/09/15 14:39:19;;;;;;;1.02;0.30;;;21.10;99.90;;;;;;6245614;23;20702;-68
2022/09/15 14:41:46;;;;;;;1.85;0.40;;;20.80;99.90;;;;;;6245697;23;20176;-68
2022/09/15 14:44:26;;;;;;;1.92;0.40;;;20.60;99.90;;;;;;6245516;23;20698;-68
2022/09/15 14:46:53;;;;;;;2.35;0.65;;;20.40;99.90;;;;;;6245992;23;20183;-68
2022/09/15 14:49:20;;;;;;;2.65;0.32;;;20.00;99.90;;;;;;6245353;23;20206;-68
2022/09/15 14:51:50;;;;;;;3.05;0.40;;;19.80;99.90;;;;;;6245810;23;20175;-68
2022/09/15 14:54:21;;;;;;;4.35;0.57;;;19.50;99.90;;;;;;6246075;23;20179;-70
2022/09/15 14:56:50;;;;;;;1.52;0.20;;;19.40;99.90;;;;;;6245549;23;20671;-68
2022/09/15 14:59:20;;;;;;;3.70;0.35;;;19.30;99.90;;;;;;6245462;23;20743;-67
2022/09/15 15:01:56;;;;;;;0.70;0.40;;;19.30;99.90;;;;;;6245836;23;20175;-68
2022/09/15 15:04:30;;;;;;;1.88;0.40;;;19.50;99.90;;;;;;6245904;23;20203;-67
2022/09/15 15:07:01;;;;;;;3.38;0.50;;;19.50;99.90;;;;;;6245877;23;20176;-67
2022/09/15 15:09:31;;;;;;;1.73;0.30;;;19.50;99.90;;;;;;6245901;23;20196;-67
2022/09/15 15:12:01;;;;;;;1.00;0.30;;;19.40;99.90;;;;;;6245896;23;20184;-67
2022/09/15 15:14:29;;;;;;;1.60;0.40;;;19.30;99.90;;;;;;6245603;23;20262;-68
2022/09/15 15:17:00;;;;;;;0.70;0.40;;;19.20;99.90;;;;;;6245661;23;20180;-68
2022/09/15 15:19:35;;;;;;;1.77;0.40;;;18.90;99.90;;;;;;6245799;23;20202;-69
2022/09/15 15:22:16;;;;;;;3.40;0.40;;;18.70;99.90;;;;;;6246242;23;20175;-68
2022/09/15 15:24:45;;;;;;;1.73;0.50;;;18.60;99.90;;;;;;6245673;23;20706;-68
2022/09/15 15:27:39;;;;;;;2.77;0.30;;;18.50;99.90;;;;;;6245409;23;20474;-68
2022/09/15 15:30:39;;;;;;;1.17;0.30;;;18.40;99.90;;;;;;6240874;23;20200;-70
2022/09/15 15:33:24;;;;;;;1.83;0.40;;;18.40;99.90;;;;;;6240643;23;20175;-68
2022/09/15 15:36:02;;;;;;;0.77;0.40;;;18.40;99.90;;;;;;6245582;23;20176;-69
2022/09/15 15:38:32;;;;;;;4.73;0.70;;;18.30;99.90;;;;;;6246090;23;20198;-68
2022/09/15 15:41:01;;;;;;;2.83;0.50;;;18.20;99.90;;;;;;6246204;23;20176;-68
2022/09/15 15:43:28;;;;;;;1.13;0.30;;;18.20;99.90;;;;;;6246200;23;20214;-71
2022/09/15 15:45:59;;;;;;;1.80;0.50;;;18.20;99.90;;;;;;6246011;23;20650;-68
2022/09/15 15:48:29;;;;;;;0.83;0.40;;;18.20;99.90;;;;;;6245269;23;20180;-68
2022/09/15 15:50:56;;;;;;;1.20;0.50;;;18.20;99.90;;;;;;6245627;23;20175;-66
2022/09/15 15:53:23;;;;;;;2.73;0.50;;;18.10;99.90;;;;;;6246212;23;20194;-68
2022/09/15 15:55:50;;;;;;;2.40;0.40;;;18.20;99.90;;;;;;6246308;23;20176;-70
2022/09/15 15:58:17;;;;;;;2.10;0.57;;;18.10;99.90;;;;;;6246398;23;20233;-68
2022/09/15 16:00:46;;;;;;;1.90;0.40;;;18.20;99.90;;;;;;6246520;23;20214;-70
2022/09/15 16:03:14;;;;;;;1.87;0.87;;;18.20;99.90;;;;;;6245869;23;20203;-68
2022/09/15 16:05:45;;;;;;;1.33;0.82;;;18.20;99.90;;;;;;6246069;23;20176;-68
2022/09/15 16:08:17;;;;;;;1.43;0.50;;;18.20;99.90;;;;;;6245983;23;20650;-69
2022/09/15 16:10:47;;;;;;;2.03;0.60;;;18.30;99.90;;;;;;6246071;23;20215;-68
2022/09/15 16:13:15;;;;;;;0.60;0.33;;;18.20;99.90;;;;;;6245657;23;20196;-71
2022/09/15 16:15:43;;;;;;;0.80;0.50;;;18.30;99.90;;;;;;6246564;23;20176;-70
2022/09/15 16:18:10;;;;;;;2.00;0.80;;;18.20;99.90;;;;;;6246199;23;20278;-69
2022/09/15 16:20:38;;;;;;;0.90;0.45;;;18.10;99.90;;;;;;6245512;23;20234;-68
2022/09/15 16:23:06;;;;;;;4.85;0.77;;;18.20;99.90;;;;;;6245893;23;20278;-69
2022/09/15 16:25:36;;;;;;;0.95;0.40;;;18.20;99.90;;;;;;6246136;23;20182;-70
2022/09/15 16:28:03;;;;;;;1.67;0.87;;;18.10;99.90;;;;;;6246365;23;20180;-69
2022/09/15 16:30:30;;;;;;;1.17;0.40;;;18.10;99.90;;;;;;6246173;23;20204;-68
2022/09/15 16:32:58;;;;;;;2.47;0.90;;;18.20;99.90;;;;;;6246317;23;20180;-69
2022/09/15 16:35:34;;;;;;;2.03;0.60;;;18.10;99.90;;;;;;6246090;23;20186;-69
2022/09/15 16:38:01;;;;;;;2.63;0.70;;;18.20;99.90;;;;;;6246363;23;20294;-69
2022/09/15 16:40:29;;;;;;;2.57;0.60;;;18.10;99.90;;;;;;6246438;23;20217;-71
2022/09/15 16:42:56;;;;;;;0.90;0.50;;;18.00;99.90;;;;;;6246864;23;20179;-68
2022/09/15 16:45:29;;;;;;;1.93;0.63;;;18.10;99.90;;;;;;6246500;23;20182;-69
2022/09/15 16:47:56;;;;;;;0.60;0.60;;;18.20;99.90;;;;;;6246672;23;20226;-68
2022/09/15 16:50:23;;;;;;;2.50;0.83;;;18.20;99.90;;;;;;6246946;23;20223;-66
2022/09/15 16:52:50;;;;;;;2.05;0.63;;;18.10;99.90;;;;;;6246152;23;20190;-68
2022/09/15 16:55:23;;;;;;;2.75;0.77;;;18.10;99.90;;;;;;6245982;23;21057;-68
2022/09/15 16:57:51;;;;;;;1.23;0.60;;;18.10;99.90;;;;;;6246355;23;20632;-69
2022/09/15 17:00:18;;;;;;;2.75;0.60;;;18.10;99.90;;;;;;6245791;23;20196;-69
2022/09/15 17:02:45;;;;;;;1.00;0.60;;;18.10;99.90;;;;;;6245881;23;20182;-69
2022/09/15 17:05:17;;;;;;;1.00;0.53;;;18.10;99.90;;;;;;6246332;23;20176;-69
2022/09/15 17:07:44;;;;;;;2.33;0.70;;;18.10;99.90;;;;;;6246753;23;20176;-68
2022/09/15 17:10:11;;;;;;;1.07;0.60;;;18.20;99.90;;;;;;6245224;23;20274;-69
2022/09/15 17:12:38;;;;;;;1.20;0.57;;;18.20;99.90;;;;;;6246167;23;20246;-69
2022/09/15 17:15:18;;;;;;;1.87;0.60;;;18.20;99.90;;;;;;6246073;23;20184;-70
2022/09/15 17:17:45;;;;;;;2.07;0.60;;;18.00;99.90;;;;;;6246451;23;20175;-68
2022/09/15 17:20:12;;;;;;;1.13;0.50;;;17.90;99.90;;;;;;6246112;23;20196;-70
2022/09/15 17:22:39;;;;;;;1.00;0.70;;;17.90;99.90;;;;;;6246250;23;20179;-67
2022/09/15 17:25:19;;;;;;;1.27;0.50;;;17.90;99.90;;;;;;6246585;23;20230;-69
2022/09/15 17:27:46;;;;;;;1.47;0.53;;;17.80;99.90;;;;;;6246189;23;20186;-68
2022/09/15 17:30:14;;;;;;;1.07;0.50;;;17.80;99.90;;;;;;6245756;23;20200;-68
2022/09/15 17:32:41;;;;;;;0.77;0.50;;;17.70;99.90;;;;;;6246550;23;20182;-68
2022/09/15 17:35:21;;;;;;;0.60;0.40;;;17.50;99.90;;;;;;6246368;23;20176;-68
2022/09/15 17:37:48;;;;;;;2.30;0.50;;;17.50;99.90;;;;;;6246291;23;20262;-68
2022/09/15 17:40:16;;;;;;;0.60;0.43;;;17.50;99.90;;;;;;6245700;23;20667;-68
2022/09/15 17:42:44;;;;;;;1.00;0.50;;;17.40;99.90;;;;;;6246103;23;20186;-68
2022/09/15 17:45:22;;;;;;;1.33;0.50;;;17.40;99.90;;;;;;6245848;23;20290;-68
2022/09/15 17:47:49;;;;;;;0.70;0.40;;;17.40;99.90;;;;;;6246253;23;20214;-68
2022/09/15 17:50:17;;;;;;;0.70;0.50;;;17.40;99.90;;;;;;6246035;23;20202;-68
2022/09/15 17:52:45;;;;;;;2.33;0.50;;;17.40;99.90;;;;;;6246191;23;20540;-68
2022/09/15 17:55:18;;;;;;;0.73;0.47;;;17.40;99.90;;;;;;6245487;23;20184;-68
2022/09/15 17:57:46;;;;;;;0.60;0.40;;;17.40;99.90;;;;;;6245573;23;20632;-68
2022/09/15 18:00:13;;;;;;;2.97;0.50;;;17.50;99.90;;;;;;6245543;23;20196;-69
2022/09/15 18:02:44;;;;;;;0.63;0.50;;;17.50;99.90;;;;;;6245266;23;20259;-68
2022/09/15 18:05:19;;;;;;;0.60;0.50;;;17.50;99.90;;;;;;6245763;23;20229;-72
2022/09/15 18:07:46;;;;;;;0.47;0.30;;;17.50;99.90;;;;;;6245860;23;20175;-67
2022/09/15 18:10:13;;;;;;;1.53;0.60;;;17.40;99.90;;;;;;6245771;23;20274;-68
2022/09/15 18:12:40;;;;;;;0.70;0.60;;;17.40;99.90;;;;;;6245576;23;20241;-68
2022/09/15 18:15:13;;;;;;;4.17;0.60;;;17.40;99.90;;;;;;6245421;23;20197;-68
2022/09/15 18:17:39;;;;;;;1.30;0.67;;;17.40;99.90;;;;;;6242780;23;20179;-68
2022/09/15 18:20:10;;;;;;;1.53;1.13;;;17.40;99.90;;;;;;6244502;23;20210;-67
2022/09/15 18:22:36;;;;;;;1.80;0.53;;;17.50;99.90;;;;;;6244465;23;20176;-68
2022/09/15 18:25:04;;;;;;;1.33;0.40;;;17.50;99.90;;;;;;6244835;23;20290;-67
2022/09/15 18:27:30;;;;;;;0.93;0.40;;;17.50;99.90;;;;;;6243917;23;20581;-67
2022/09/15 18:29:57;;;;;;;1.90;0.68;;;17.50;99.90;;;;;;6244016;23;20203;-68
2022/09/15 18:32:24;;;;;;;1.80;0.50;;;17.50;99.90;;;;;;6244018;23;20184;-69
2022/09/15 18:34:51;;;;;;;1.00;0.50;;;17.50;99.90;;;;;;6243526;23;20180;-70
2022/09/15 18:37:19;;;;;;;1.93;0.60;;;17.50;99.90;;;;;;6244517;23;20175;-69
2022/09/15 18:39:46;;;;;;;0.93;0.60;;;17.50;99.90;;;;;;6245041;23;20195;-69
2022/09/15 18:42:12;;;;;;;0.60;0.40;;;17.50;99.90;;;;;;6244457;23;20176;-70
2022/09/15 18:44:39;;;;;;;1.60;0.43;;;17.40;99.90;;;;;;6244680;23;20303;-69
2022/09/15 18:47:06;;;;;;;0.57;0.38;;;17.40;99.90;;;;;;6244178;23;20186;-68
2022/09/15 18:49:33;;;;;;;1.03;0.50;;;17.30;99.90;;;;;;6244924;23;20227;-70
2022/09/15 18:52:01;;;;;;;1.10;0.40;;;17.30;99.90;;;;;;6244642;23;20176;-68
2022/09/15 18:54:30;;;;;;;1.03;0.67;;;17.40;99.90;;;;;;6245230;23;20186;-69
2022/09/15 18:56:57;;;;;;;1.93;0.57;;;17.40;99.90;;;;;;6244823;23;20633;-69
2022/09/15 18:59:24;;;;;;;0.50;0.43;;;17.40;99.90;;;;;;6244949;23;20251;-68
2022/09/15 19:01:51;;;;;;;1.57;0.40;;;17.30;99.90;;;;;;6244754;23;20182;-68
2022/09/15 19:04:18;;;;;;;1.57;0.47;;;17.30;99.90;;;;;;6244725;23;20315;-68
2022/09/15 19:06:45;;;;;;;1.23;0.50;;;17.40;99.90;;;;;;6243897;23;20190;-68
2022/09/15 19:09:11;;;;;;;0.97;0.47;;;17.40;99.90;;;;;;6245634;23;20604;-70
2022/09/15 19:11:40;;;;;;;3.07;0.40;;;17.40;99.90;;;;;;6246998;23;20185;-69
2022/09/15 19:14:06;;;;;;;1.50;0.30;;;17.40;99.90;;;;;;6246583;23;20180;-71
2022/09/15 19:16:33;;;;;;;1.73;0.50;;;17.30;99.90;;;;;;6246026;23;20180;-69
2022/09/15 19:19:00;;;;;;;1.53;0.40;;;17.30;99.90;;;;;;6246413;23;20222;-69
2022/09/15 19:21:27;;;;;;;1.17;0.60;;;17.20;99.90;;;;;;6246882;23;20650;-68
2022/09/15 19:23:56;;;;;;;0.93;0.40;;;17.20;99.90;;;;;;6245758;23;20685;-68
2022/09/15 19:26:27;;;;;;;2.43;0.40;;;17.20;99.90;;;;;;6246264;23;20497;-68
2022/09/15 19:28:56;;;;;;;1.87;0.50;;;17.20;99.90;;;;;;6246468;23;20196;-68
2022/09/15 19:31:23;;;;;;;3.17;0.90;;;17.30;99.90;;;;;;6246221;23;20182;-68
2022/09/15 19:33:51;;;;;;;2.00;0.60;;;17.30;99.90;;;;;;6245703;23;20179;-68
2022/09/15 19:36:18;;;;;;;1.80;0.40;;;17.20;99.90;;;;;;6246275;23;21020;-68
2022/09/15 19:38:45;;;;;;;2.90;0.50;;;17.10;99.90;;;;;;6246831;23;20263;-68
2022/09/15 19:41:14;;;;;;;1.80;0.40;;;17.20;99.90;;;;;;6245856;23;20210;-68
2022/09/15 19:43:41;;;;;;;2.83;0.40;;;17.10;99.90;;;;;;6246088;23;20186;-67
2022/09/15 19:46:14;;;;;;;0.63;0.40;;;17.10;99.90;;;;;;6246803;23;20203;-68
2022/09/15 19:48:41;;;;;;;1.70;0.40;;;17.10;99.90;;;;;;6246572;23;20182;-67
2022/09/15 19:51:09;;;;;;;3.50;0.47;;;17.00;99.90;;;;;;6246278;23;20214;-68
2022/09/15 19:53:36;;;;;;;6.97;0.70;;;16.80;99.90;;;;;;6246201;23;20175;-67
2022/09/15 19:56:04;;;;;;;2.50;0.40;;;16.80;99.90;;;;;;6245872;23;20218;-68
2022/09/15 19:58:31;;;;;;;0.83;0.37;;;16.80;99.90;;;;;;6245861;23;20176;-68
2022/09/15 20:00:58;;;;;;;2.30;0.70;;;16.90;99.90;;;;;;6246057;23;20254;-68
2022/09/15 20:03:27;;;;;;;2.63;0.70;;;16.90;99.90;;;;;;6246213;23;20654;-68
2022/09/15 20:05:56;;;;;;;2.60;0.57;;;16.80;99.90;;;;;;6241359;23;20215;-68
2022/09/15 20:08:23;;;;;;;3.87;0.60;;;16.80;99.90;;;;;;6245439;23;20179;-68
2022/09/15 20:10:50;;;;;;;1.10;0.60;;;16.80;99.90;;;;;;6245313;23;20569;-68
2022/09/15 20:13:18;;;;;;;1.30;0.60;;;16.90;99.90;;;;;;6245876;23;20184;-68
2022/09/15 20:15:55;;;;;;;1.37;0.50;;;16.80;99.90;;;;;;6245872;23;20183;-68
2022/09/15 20:18:22;;;;;;;1.70;0.40;;;16.80;99.90;;;;;;6245771;23;20478;-68
2022/09/15 20:20:50;;;;;;;1.13;0.50;;;16.80;99.90;;;;;;6245597;23;20704;-68
2022/09/15 20:23:17;;;;;;;0.93;0.30;;;16.80;99.90;;;;;;6246002;23;20690;-67
2022/09/15 20:25:55;;;;;;;1.33;0.43;;;16.90;99.90;;;;;;6245781;23;20215;-68
2022/09/15 20:28:22;;;;;;;1.27;0.40;;;16.80;99.90;;;;;;6246129;23;20186;-69
2022/09/15 20:30:58;;;;;;;1.80;0.43;;;16.90;99.90;;;;;;6246454;23;20249;-70
2022/09/15 20:33:26;;;;;;;4.73;0.90;;;16.90;99.90;;;;;;6246436;23;20179;-70
2022/09/15 20:35:54;;;;;;;1.97;0.37;;;16.90;99.90;;;;;;6243714;23;20771;-70
2022/09/15 20:38:21;;;;;;;0.93;0.50;;;16.90;99.90;;;;;;6244939;23;20225;-69
2022/09/15 20:40:52;;;;;;;0.90;0.50;;;16.90;99.90;;;;;;6245516;23;20671;-68
2022/09/15 20:43:19;;;;;;;0.83;0.33;;;16.90;99.90;;;;;;6245816;23;20197;-70
2022/09/15 20:45:55;;;;;;;3.37;0.60;;;16.90;99.90;;;;;;6244595;23;20671;-69
2022/09/15 20:48:21;;;;;;;1.03;0.37;;;16.70;99.90;;;;;;6246869;23;20176;-70
2022/09/15 20:50:48;;;;;;;1.07;0.47;;;16.80;99.90;;;;;;6246063;23;20195;-69
2022/09/15 20:53:16;;;;;;;1.57;0.33;;;16.70;99.90;;;;;;6246484;23;20176;-69
2022/09/15 20:55:49;;;;;;;1.43;0.40;;;16.80;99.90;;;;;;6246371;23;20237;-70
2022/09/15 20:58:16;;;;;;;1.33;0.40;;;16.80;99.90;;;;;;6246877;23;20183;-71
2022/09/15 21:00:42;;;;;;;1.60;0.43;;;16.80;99.90;;;;;;6246334;23;20676;-70
2022/09/15 21:03:09;;;;;;;3.50;0.47;;;16.80;99.90;;;;;;6246732;23;20203;-70
2022/09/15 21:05:36;;;;;;;0.97;0.43;;;16.70;99.90;;;;;;6246761;23;20214;-70
2022/09/15 21:08:04;;;;;;;0.40;0.20;;;16.60;99.90;;;;;;6246783;23;20182;-69
2022/09/15 21:10:32;;;;;;;1.87;0.53;;;16.70;99.90;;;;;;6246384;23;20199;-68
2022/09/15 21:12:59;;;;;;;2.33;0.40;;;16.70;99.90;;;;;;6246013;23;20187;-67
2022/09/15 21:15:27;;;;;;;1.03;0.30;;;16.70;99.90;;;;;;6246349;23;20202;-70
2022/09/15 21:17:53;;;;;;;2.93;0.37;;;16.60;99.90;;;;;;6246703;23;20176;-70
2022/09/15 21:20:20;;;;;;;4.30;0.63;;;16.70;99.90;;;;;;6246544;23;20196;-70